sensor_id;sensor_type;location;lat;lon;timestamp;pressure;altitude;pressure_sealevel;temperature;humidity
72370;BME280;60343;-32.030;115.880;2022-09-21T00:00:16;102020.72;;;17.33;67.09
72370;BME280;60343;-32.030;115.880;2022-09-21T00:02:44;102031.22;;;17.65;67.36
72370;BME280;60343;-32.030;115.880;2022-09-21T00:05:18;102020.63;;;18.06;66.55
72370;BME280;60343;-32.030;115.880;2022-09-21T00:07:46;102021.25;;;18.44;65.10
72370;BME280;60343;-32.030;115.880;2022-09-21T00:10:15;102032.16;;;18.72;65.21
72370;BME280;60343;-32.030;115.880;2022-09-21T00:12:43;102035.72;;;19.00;65.34
72370;BME280;60343;-32.030;115.880;2022-09-21T00:15:11;102035.69;;;19.28;62.59
72370;BME280;60343;-32.030;115.880;2022-09-21T00:17:42;102040.31;;;19.68;63.41
72370;BME280;60343;-32.030;115.880;2022-09-21T00:20:16;102039.19;;;19.91;62.04
72370;BME280;60343;-32.030;115.880;2022-09-21T00:22:44;102039.22;;;20.17;61.59
72370;BME280;60343;-32.030;115.880;2022-09-21T00:25:13;102033.66;;;20.38;59.57
72370;BME280;60343;-32.030;115.880;2022-09-21T00:27:41;102032.84;;;20.44;60.29
72370;BME280;60343;-32.030;115.880;2022-09-21T00:30:10;102034.53;;;20.52;59.37
72370;BME280;60343;-32.030;115.880;2022-09-21T00:32:39;102035.16;;;20.61;59.20
72370;BME280;60343;-32.030;115.880;2022-09-21T00:35:07;102037.66;;;20.49;58.85
72370;BME280;60343;-32.030;115.880;2022-09-21T00:37:41;102046.03;;;19.80;61.34
72370;BME280;60343;-32.030;115.880;2022-09-21T00:40:12;102046.63;;;19.76;61.20
72370;BME280;60343;-32.030;115.880;2022-09-21T00:42:40;102048.91;;;19.65;62.27
72370;BME280;60343;-32.030;115.880;2022-09-21T00:45:11;102049.66;;;20.00;61.16
72370;BME280;60343;-32.030;115.880;2022-09-21T00:47:42;102040.16;;;20.44;60.48
72370;BME280;60343;-32.030;115.880;2022-09-21T00:50:14;102046.06;;;20.87;59.46
72370;BME280;60343;-32.030;115.880;2022-09-21T00:52:51;102042.66;;;20.39;60.21
72370;BME280;60343;-32.030;115.880;2022-09-21T00:55:23;102038.53;;;20.76;60.49
72370;BME280;60343;-32.030;115.880;2022-09-21T00:57:55;102038.06;;;20.98;59.69
72370;BME280;60343;-32.030;115.880;2022-09-21T01:00:25;102040.41;;;21.21;58.97
72370;BME280;60343;-32.030;115.880;2022-09-21T01:02:55;102037.81;;;21.39;58.35
72370;BME280;60343;-32.030;115.880;2022-09-21T01:05:23;102036.34;;;21.50;58.65
72370;BME280;60343;-32.030;115.880;2022-09-21T01:08:02;102030.41;;;21.66;57.80
72370;BME280;60343;-32.030;115.880;2022-09-21T01:10:45;102034.19;;;21.59;58.06
72370;BME280;60343;-32.030;115.880;2022-09-21T01:13:24;102021.06;;;22.00;56.95
72370;BME280;60343;-32.030;115.880;2022-09-21T01:16:01;102023.75;;;22.38;57.35
72370;BME280;60343;-32.030;115.880;2022-09-21T01:18:36;102032.75;;;22.39;56.20
72370;BME280;60343;-32.030;115.880;2022-09-21T01:21:19;102030.38;;;22.49;54.22
72370;BME280;60343;-32.030;115.880;2022-09-21T01:24:17;102036.53;;;22.69;54.92
72370;BME280;60343;-32.030;115.880;2022-09-21T01:27:25;102038.19;;;22.70;52.56
72370;BME280;60343;-32.030;115.880;2022-09-21T01:30:07;102045.31;;;22.46;51.91
72370;BME280;60343;-32.030;115.880;2022-09-21T01:32:41;102035.69;;;22.12;54.00
72370;BME280;60343;-32.030;115.880;2022-09-21T01:35:15;102030.38;;;21.73;55.76
72370;BME280;60343;-32.030;115.880;2022-09-21T01:37:48;102041.63;;;21.90;55.56
72370;BME280;60343;-32.030;115.880;2022-09-21T01:40:21;102037.53;;;21.67;55.99
72370;BME280;60343;-32.030;115.880;2022-09-21T01:42:51;102033.38;;;22.09;54.05
72370;BME280;60343;-32.030;115.880;2022-09-21T01:45:29;102045.19;;;21.90;54.60
72370;BME280;60343;-32.030;115.880;2022-09-21T01:48:00;102041.22;;;22.31;53.29
72370;BME280;60343;-32.030;115.880;2022-09-21T01:50:31;102034.44;;;22.71;51.68
72370;BME280;60343;-32.030;115.880;2022-09-21T01:53:04;102034.38;;;22.15;53.50
72370;BME280;60343;-32.030;115.880;2022-09-21T01:55:41;102038.66;;;21.40;53.30
72370;BME280;60343;-32.030;115.880;2022-09-21T01:58:17;102033.06;;;20.89;55.14
72370;BME280;60343;-32.030;115.880;2022-09-21T02:00:55;102040.19;;;20.50;55.34
72370;BME280;60343;-32.030;115.880;2022-09-21T02:03:28;102038.78;;;20.07;56.02
72370;BME280;60343;-32.030;115.880;2022-09-21T02:05:58;102037.06;;;20.67;55.95
72370;BME280;60343;-32.030;115.880;2022-09-21T02:08:30;102045.84;;;21.15;54.49
72370;BME280;60343;-32.030;115.880;2022-09-21T02:10:59;102036.25;;;21.70;52.30
72370;BME280;60343;-32.030;115.880;2022-09-21T02:13:31;102035.22;;;22.15;51.50
72370;BME280;60343;-32.030;115.880;2022-09-21T02:19:09;102028.38;;;21.93;51.93
72370;BME280;60343;-32.030;115.880;2022-09-21T02:24:39;102024.84;;;22.62;48.94
72370;BME280;60343;-32.030;115.880;2022-09-21T02:27:11;102021.25;;;22.37;49.67
72370;BME280;60343;-32.030;115.880;2022-09-21T02:29:48;102025.06;;;21.91;48.99
72370;BME280;60343;-32.030;115.880;2022-09-21T02:32:27;102024.38;;;22.65;50.38
72370;BME280;60343;-32.030;115.880;2022-09-21T02:35:02;102018.72;;;22.91;49.19
72370;BME280;60343;-32.030;115.880;2022-09-21T02:37:38;102018.28;;;22.07;51.58
72370;BME280;60343;-32.030;115.880;2022-09-21T02:40:22;102032.13;;;21.54;53.53
72370;BME280;60343;-32.030;115.880;2022-09-21T02:42:56;102016.50;;;21.81;52.02
72370;BME280;60343;-32.030;115.880;2022-09-21T02:45:27;102018.97;;;21.96;52.60
72370;BME280;60343;-32.030;115.880;2022-09-21T02:48:08;102019.75;;;22.65;50.09
72370;BME280;60343;-32.030;115.880;2022-09-21T02:50:41;102015.13;;;22.73;50.53
72370;BME280;60343;-32.030;115.880;2022-09-21T02:53:11;102004.97;;;22.80;50.08
72370;BME280;60343;-32.030;115.880;2022-09-21T02:55:42;102009.88;;;22.40;49.79
72370;BME280;60343;-32.030;115.880;2022-09-21T02:58:13;102010.81;;;22.27;49.92
72370;BME280;60343;-32.030;115.880;2022-09-21T03:00:42;102008.63;;;22.11;51.24
72370;BME280;60343;-32.030;115.880;2022-09-21T03:03:23;102007.59;;;22.37;50.61
72370;BME280;60343;-32.030;115.880;2022-09-21T03:05:53;102002.66;;;22.52;51.01
72370;BME280;60343;-32.030;115.880;2022-09-21T03:08:22;102006.72;;;22.11;50.91
72370;BME280;60343;-32.030;115.880;2022-09-21T03:10:50;102004.09;;;21.85;52.23
72370;BME280;60343;-32.030;115.880;2022-09-21T03:13:18;102000.00;;;21.63;51.20
72370;BME280;60343;-32.030;115.880;2022-09-21T03:15:46;101996.69;;;21.61;52.37
72370;BME280;60343;-32.030;115.880;2022-09-21T03:18:20;102001.41;;;21.78;52.38
72370;BME280;60343;-32.030;115.880;2022-09-21T03:20:48;101992.28;;;22.04;51.20
72370;BME280;60343;-32.030;115.880;2022-09-21T03:23:16;101981.22;;;22.24;51.25
72370;BME280;60343;-32.030;115.880;2022-09-21T03:25:45;101980.81;;;21.96;50.70
72370;BME280;60343;-32.030;115.880;2022-09-21T03:28:14;101988.38;;;21.87;51.06
72370;BME280;60343;-32.030;115.880;2022-09-21T03:30:43;101983.50;;;21.58;51.98
72370;BME280;60343;-32.030;115.880;2022-09-21T03:33:11;101983.22;;;22.10;51.53
72370;BME280;60343;-32.030;115.880;2022-09-21T03:35:46;101972.19;;;22.55;51.08
72370;BME280;60343;-32.030;115.880;2022-09-21T03:38:14;101976.91;;;22.73;48.54
72370;BME280;60343;-32.030;115.880;2022-09-21T03:40:45;101969.78;;;22.65;49.09
72370;BME280;60343;-32.030;115.880;2022-09-21T03:43:14;101961.09;;;22.50;48.53
72370;BME280;60343;-32.030;115.880;2022-09-21T03:45:42;101962.78;;;22.51;48.76
72370;BME280;60343;-32.030;115.880;2022-09-21T03:48:11;101958.19;;;22.20;48.52
72370;BME280;60343;-32.030;115.880;2022-09-21T03:50:45;101968.00;;;22.28;51.31
72370;BME280;60343;-32.030;115.880;2022-09-21T03:53:13;101958.75;;;22.53;48.75
72370;BME280;60343;-32.030;115.880;2022-09-21T03:55:42;101955.66;;;22.75;49.61
72370;BME280;60343;-32.030;115.880;2022-09-21T03:58:10;101953.19;;;22.66;49.20
72370;BME280;60343;-32.030;115.880;2022-09-21T04:00:39;101945.34;;;22.52;48.34
72370;BME280;60343;-32.030;115.880;2022-09-21T04:03:07;101945.66;;;22.87;47.71
72370;BME280;60343;-32.030;115.880;2022-09-21T04:05:35;101937.31;;;22.82;47.28
72370;BME280;60343;-32.030;115.880;2022-09-21T04:08:09;101935.44;;;22.57;47.71
72370;BME280;60343;-32.030;115.880;2022-09-21T04:10:37;101926.41;;;22.32;47.97
72370;BME280;60343;-32.030;115.880;2022-09-21T04:13:06;101921.28;;;22.17;48.78
72370;BME280;60343;-32.030;115.880;2022-09-21T04:15:34;101915.44;;;22.14;48.97
72370;BME280;60343;-32.030;115.880;2022-09-21T04:18:02;101923.69;;;22.32;48.05
72370;BME280;60343;-32.030;115.880;2022-09-21T04:20:33;101920.53;;;22.04;49.32
72370;BME280;60343;-32.030;115.880;2022-09-21T04:23:06;101913.44;;;21.65;50.31
72370;BME280;60343;-32.030;115.880;2022-09-21T04:25:35;101905.50;;;21.88;50.29
72370;BME280;60343;-32.030;115.880;2022-09-21T04:28:03;101909.50;;;21.92;48.68
72370;BME280;60343;-32.030;115.880;2022-09-21T04:30:31;101904.13;;;22.35;47.92
72370;BME280;60343;-32.030;115.880;2022-09-21T04:32:59;101899.31;;;22.80;46.76
72370;BME280;60343;-32.030;115.880;2022-09-21T04:35:27;101902.66;;;23.00;45.34
72370;BME280;60343;-32.030;115.880;2022-09-21T04:37:55;101902.41;;;22.84;45.71
72370;BME280;60343;-32.030;115.880;2022-09-21T04:40:29;101909.19;;;22.81;43.23
72370;BME280;60343;-32.030;115.880;2022-09-21T04:42:58;101904.00;;;22.48;44.40
72370;BME280;60343;-32.030;115.880;2022-09-21T04:45:26;101899.03;;;22.88;46.87
72370;BME280;60343;-32.030;115.880;2022-09-21T04:47:54;101902.25;;;23.15;47.67
72370;BME280;60343;-32.030;115.880;2022-09-21T04:50:22;101895.19;;;23.26;47.99
72370;BME280;60343;-32.030;115.880;2022-09-21T04:52:50;101890.78;;;23.43;46.40
72370;BME280;60343;-32.030;115.880;2022-09-21T04:55:18;101893.09;;;23.28;46.66
72370;BME280;60343;-32.030;115.880;2022-09-21T04:57:52;101892.19;;;22.79;47.42
72370;BME280;60343;-32.030;115.880;2022-09-21T05:00:20;101881.97;;;22.93;47.29
72370;BME280;60343;-32.030;115.880;2022-09-21T05:02:51;101883.47;;;22.64;46.54
72370;BME280;60343;-32.030;115.880;2022-09-21T05:05:19;101886.22;;;22.21;48.85
72370;BME280;60343;-32.030;115.880;2022-09-21T05:07:47;101876.34;;;21.95;50.23
72370;BME280;60343;-32.030;115.880;2022-09-21T05:10:16;101863.75;;;21.94;50.61
72370;BME280;60343;-32.030;115.880;2022-09-21T05:12:44;101871.00;;;21.75;50.60
72370;BME280;60343;-32.030;115.880;2022-09-21T05:15:18;101872.13;;;22.24;49.70
72370;BME280;60343;-32.030;115.880;2022-09-21T05:17:46;101874.13;;;22.35;49.71
72370;BME280;60343;-32.030;115.880;2022-09-21T05:20:14;101862.72;;;22.63;48.43
72370;BME280;60343;-32.030;115.880;2022-09-21T05:22:42;101868.69;;;22.10;49.89
72370;BME280;60343;-32.030;115.880;2022-09-21T05:25:14;101868.94;;;22.52;49.37
72370;BME280;60343;-32.030;115.880;2022-09-21T05:27:42;101865.63;;;23.04;49.61
72370;BME280;60343;-32.030;115.880;2022-09-21T05:30:17;101858.81;;;22.95;47.42
72370;BME280;60343;-32.030;115.880;2022-09-21T05:32:51;101856.88;;;22.59;48.27
72370;BME280;60343;-32.030;115.880;2022-09-21T05:35:26;101864.38;;;22.21;48.48
72370;BME280;60343;-32.030;115.880;2022-09-21T05:38:02;101858.41;;;22.31;48.13
72370;BME280;60343;-32.030;115.880;2022-09-21T05:40:31;101857.91;;;22.83;46.99
72370;BME280;60343;-32.030;115.880;2022-09-21T05:43:00;101854.06;;;23.21;46.40
72370;BME280;60343;-32.030;115.880;2022-09-21T05:45:35;101852.94;;;23.28;47.03
72370;BME280;60343;-32.030;115.880;2022-09-21T05:48:10;101844.50;;;23.48;45.21
72370;BME280;60343;-32.030;115.880;2022-09-21T05:50:53;101851.81;;;23.77;45.21
72370;BME280;60343;-32.030;115.880;2022-09-21T05:53:35;101854.94;;;23.51;44.71
72370;BME280;60343;-32.030;115.880;2022-09-21T05:56:10;101851.97;;;23.94;44.70
72370;BME280;60343;-32.030;115.880;2022-09-21T05:58:46;101856.88;;;24.15;44.33
72370;BME280;60343;-32.030;115.880;2022-09-21T06:01:35;101847.41;;;24.18;44.21
72370;BME280;60343;-32.030;115.880;2022-09-21T06:04:09;101845.59;;;24.35;43.37
72370;BME280;60343;-32.030;115.880;2022-09-21T06:06:37;101843.69;;;24.47;42.76
72370;BME280;60343;-32.030;115.880;2022-09-21T06:09:05;101843.34;;;24.32;42.38
72370;BME280;60343;-32.030;115.880;2022-09-21T06:11:36;101853.94;;;24.40;42.76
72370;BME280;60343;-32.030;115.880;2022-09-21T06:14:05;101846.69;;;24.34;43.11
72370;BME280;60343;-32.030;115.880;2022-09-21T06:16:47;101837.03;;;24.43;42.33
72370;BME280;60343;-32.030;115.880;2022-09-21T06:19:15;101837.34;;;24.70;42.92
72370;BME280;60343;-32.030;115.880;2022-09-21T06:21:46;101836.66;;;24.40;42.67
72370;BME280;60343;-32.030;115.880;2022-09-21T06:24:14;101830.16;;;24.29;43.98
72370;BME280;60343;-32.030;115.880;2022-09-21T06:26:42;101834.38;;;23.48;44.89
72370;BME280;60343;-32.030;115.880;2022-09-21T06:29:10;101840.56;;;23.26;46.53
72370;BME280;60343;-32.030;115.880;2022-09-21T06:31:38;101836.91;;;22.41;48.69
72370;BME280;60343;-32.030;115.880;2022-09-21T06:34:12;101847.84;;;21.60;52.70
72370;BME280;60343;-32.030;115.880;2022-09-21T06:36:40;101858.00;;;20.95;57.50
72370;BME280;60343;-32.030;115.880;2022-09-21T06:39:08;101858.50;;;20.72;60.96
72370;BME280;60343;-32.030;115.880;2022-09-21T06:41:36;101852.78;;;20.87;59.39
72370;BME280;60343;-32.030;115.880;2022-09-21T06:44:05;101841.53;;;21.91;52.93
72370;BME280;60343;-32.030;115.880;2022-09-21T06:46:36;101836.03;;;22.65;51.03
72370;BME280;60343;-32.030;115.880;2022-09-21T06:49:04;101834.31;;;23.67;48.57
72370;BME280;60343;-32.030;115.880;2022-09-21T06:51:38;101835.72;;;24.22;45.99
72370;BME280;60343;-32.030;115.880;2022-09-21T06:54:06;101836.41;;;23.53;46.10
72370;BME280;60343;-32.030;115.880;2022-09-21T06:56:46;101841.38;;;22.78;48.09
72370;BME280;60343;-32.030;115.880;2022-09-21T06:59:15;101832.56;;;21.83;49.95
72370;BME280;60343;-32.030;115.880;2022-09-21T07:01:43;101838.13;;;21.39;51.20
72370;BME280;60343;-32.030;115.880;2022-09-21T07:04:11;101837.81;;;21.16;53.66
72370;BME280;60343;-32.030;115.880;2022-09-21T07:06:45;101839.50;;;21.04;53.65
72370;BME280;60343;-32.030;115.880;2022-09-21T07:09:13;101839.84;;;20.76;55.16
72370;BME280;60343;-32.030;115.880;2022-09-21T07:11:41;101842.22;;;20.46;57.25
72370;BME280;60343;-32.030;115.880;2022-09-21T07:14:09;101847.25;;;20.36;56.87
72370;BME280;60343;-32.030;115.880;2022-09-21T07:16:38;101851.00;;;20.28;57.55
72370;BME280;60343;-32.030;115.880;2022-09-21T07:19:08;101856.25;;;20.17;58.02
72370;BME280;60343;-32.030;115.880;2022-09-21T07:21:36;101854.78;;;20.01;60.08
72370;BME280;60343;-32.030;115.880;2022-09-21T07:24:10;101849.94;;;20.49;58.56
72370;BME280;60343;-32.030;115.880;2022-09-21T07:26:38;101845.59;;;22.13;55.41
72370;BME280;60343;-32.030;115.880;2022-09-21T07:29:07;101838.66;;;22.78;50.74
72370;BME280;60343;-32.030;115.880;2022-09-21T07:31:35;101826.31;;;22.51;50.05
72370;BME280;60343;-32.030;115.880;2022-09-21T07:34:03;101833.69;;;21.45;50.53
72370;BME280;60343;-32.030;115.880;2022-09-21T07:36:32;101830.78;;;20.88;52.06
72370;BME280;60343;-32.030;115.880;2022-09-21T07:39:00;101830.91;;;20.55;54.09
72370;BME280;60343;-32.030;115.880;2022-09-21T07:41:34;101835.94;;;20.39;54.15
72370;BME280;60343;-32.030;115.880;2022-09-21T07:44:02;101835.94;;;20.32;53.80
72370;BME280;60343;-32.030;115.880;2022-09-21T07:46:30;101851.88;;;20.35;55.32
72370;BME280;60343;-32.030;115.880;2022-09-21T07:48:58;101846.81;;;20.52;55.07
72370;BME280;60343;-32.030;115.880;2022-09-21T07:51:26;101841.59;;;20.44;56.37
72370;BME280;60343;-32.030;115.880;2022-09-21T07:53:58;101840.53;;;20.45;55.90
72370;BME280;60343;-32.030;115.880;2022-09-21T07:56:32;101838.03;;;20.30;56.60
72370;BME280;60343;-32.030;115.880;2022-09-21T07:59:00;101838.03;;;20.30;56.83
72370;BME280;60343;-32.030;115.880;2022-09-21T08:01:29;101829.25;;;20.35;55.85
72370;BME280;60343;-32.030;115.880;2022-09-21T08:03:58;101834.31;;;20.31;57.07
72370;BME280;60343;-32.030;115.880;2022-09-21T08:06:27;101833.88;;;20.21;56.31
72370;BME280;60343;-32.030;115.880;2022-09-21T08:08:56;101840.75;;;20.24;59.75
72370;BME280;60343;-32.030;115.880;2022-09-21T08:11:34;101844.75;;;19.95;60.96
72370;BME280;60343;-32.030;115.880;2022-09-21T08:14:03;101847.03;;;19.85;61.77
72370;BME280;60343;-32.030;115.880;2022-09-21T08:16:32;101842.22;;;19.74;60.09
72370;BME280;60343;-32.030;115.880;2022-09-21T08:19:00;101854.53;;;19.83;60.81
72370;BME280;60343;-32.030;115.880;2022-09-21T08:21:28;101845.09;;;20.71;58.79
72370;BME280;60343;-32.030;115.880;2022-09-21T08:23:57;101835.88;;;20.72;58.38
72370;BME280;60343;-32.030;115.880;2022-09-21T08:26:41;101833.84;;;20.47;58.07
72370;BME280;60343;-32.030;115.880;2022-09-21T08:29:10;101834.66;;;20.28;59.62
72370;BME280;60343;-32.030;115.880;2022-09-21T08:31:38;101834.50;;;20.17;59.54
72370;BME280;60343;-32.030;115.880;2022-09-21T08:34:06;101841.38;;;20.26;58.89
72370;BME280;60343;-32.030;115.880;2022-09-21T08:36:34;101844.50;;;20.23;59.98
72370;BME280;60343;-32.030;115.880;2022-09-21T08:39:03;101839.19;;;20.87;58.68
72370;BME280;60343;-32.030;115.880;2022-09-21T08:41:53;101844.56;;;21.00;57.66
72370;BME280;60343;-32.030;115.880;2022-09-21T08:44:26;101850.84;;;21.07;58.15
72370;BME280;60343;-32.030;115.880;2022-09-21T08:47:02;101844.91;;;21.23;56.28
72370;BME280;60343;-32.030;115.880;2022-09-21T08:49:33;101854.16;;;21.09;56.95
72370;BME280;60343;-32.030;115.880;2022-09-21T08:52:05;101858.63;;;20.90;57.76
72370;BME280;60343;-32.030;115.880;2022-09-21T08:54:41;101861.38;;;20.84;57.48
72370;BME280;60343;-32.030;115.880;2022-09-21T08:57:18;101860.19;;;20.67;57.00
72370;BME280;60343;-32.030;115.880;2022-09-21T08:59:48;101860.22;;;20.47;56.46
72370;BME280;60343;-32.030;115.880;2022-09-21T09:02:36;101871.91;;;20.08;58.24
72370;BME280;60343;-32.030;115.880;2022-09-21T09:05:19;101869.41;;;19.93;58.59
72370;BME280;60343;-32.030;115.880;2022-09-21T09:08:07;101867.69;;;19.73;59.86
72370;BME280;60343;-32.030;115.880;2022-09-21T09:10:40;101869.16;;;19.55;59.79
72370;BME280;60343;-32.030;115.880;2022-09-21T09:13:36;101874.56;;;19.49;62.69
72370;BME280;60343;-32.030;115.880;2022-09-21T09:16:11;101882.56;;;19.22;64.72
72370;BME280;60343;-32.030;115.880;2022-09-21T09:18:45;101885.84;;;19.05;65.46
72370;BME280;60343;-32.030;115.880;2022-09-21T09:21:19;101886.00;;;18.97;65.29
72370;BME280;60343;-32.030;115.880;2022-09-21T09:23:53;101879.69;;;18.83;65.89
72370;BME280;60343;-32.030;115.880;2022-09-21T09:26:28;101887.19;;;18.81;66.57
72370;BME280;60343;-32.030;115.880;2022-09-21T09:29:13;101889.44;;;18.77;66.00
72370;BME280;60343;-32.030;115.880;2022-09-21T09:31:42;101895.91;;;18.76;63.30
72370;BME280;60343;-32.030;115.880;2022-09-21T09:34:14;101894.41;;;18.67;62.44
72370;BME280;60343;-32.030;115.880;2022-09-21T09:36:47;101895.78;;;18.57;62.86
72370;BME280;60343;-32.030;115.880;2022-09-21T09:39:17;101896.00;;;18.55;64.82
72370;BME280;60343;-32.030;115.880;2022-09-21T09:47:40;101900.88;;;18.17;67.04
72370;BME280;60343;-32.030;115.880;2022-09-21T09:50:12;101898.94;;;18.11;67.52
72370;BME280;60343;-32.030;115.880;2022-09-21T09:52:48;101895.09;;;17.99;67.87
72370;BME280;60343;-32.030;115.880;2022-09-21T09:55:30;101900.44;;;17.92;68.98
72370;BME280;60343;-32.030;115.880;2022-09-21T09:58:08;101900.09;;;17.81;69.10
72370;BME280;60343;-32.030;115.880;2022-09-21T10:00:51;101905.06;;;17.77;67.47
72370;BME280;60343;-32.030;115.880;2022-09-21T10:03:21;101903.78;;;17.73;66.57
72370;BME280;60343;-32.030;115.880;2022-09-21T10:05:50;101908.44;;;17.79;66.31
72370;BME280;60343;-32.030;115.880;2022-09-21T10:08:40;101904.81;;;17.72;66.12
72370;BME280;60343;-32.030;115.880;2022-09-21T10:11:10;101909.22;;;17.73;66.00
72370;BME280;60343;-32.030;115.880;2022-09-21T10:13:40;101913.59;;;17.74;66.32
72370;BME280;60343;-32.030;115.880;2022-09-21T10:16:20;101915.66;;;17.72;66.68
72370;BME280;60343;-32.030;115.880;2022-09-21T10:18:50;101915.84;;;17.71;66.55
72370;BME280;60343;-32.030;115.880;2022-09-21T10:21:24;101912.41;;;17.62;67.03
72370;BME280;60343;-32.030;115.880;2022-09-21T10:23:55;101909.81;;;17.54;68.07
72370;BME280;60343;-32.030;115.880;2022-09-21T10:26:31;101895.47;;;17.39;68.44
72370;BME280;60343;-32.030;115.880;2022-09-21T10:29:15;101892.84;;;17.31;69.64
72370;BME280;60343;-32.030;115.880;2022-09-21T10:31:54;101898.56;;;17.21;69.58
72370;BME280;60343;-32.030;115.880;2022-09-21T10:34:22;101900.44;;;17.21;69.58
72370;BME280;60343;-32.030;115.880;2022-09-21T10:36:52;101897.94;;;17.19;70.47
72370;BME280;60343;-32.030;115.880;2022-09-21T10:39:22;101903.81;;;17.23;71.14
72370;BME280;60343;-32.030;115.880;2022-09-21T10:41:53;101918.00;;;17.25;71.05
72370;BME280;60343;-32.030;115.880;2022-09-21T10:44:22;101899.69;;;17.27;71.00
72370;BME280;60343;-32.030;115.880;2022-09-21T10:46:58;101911.63;;;17.32;71.60
72370;BME280;60343;-32.030;115.880;2022-09-21T10:49:30;101907.22;;;17.31;71.25
72370;BME280;60343;-32.030;115.880;2022-09-21T10:52:02;101919.66;;;17.26;71.78
72370;BME280;60343;-32.030;115.880;2022-09-21T10:54:31;101918.16;;;17.23;71.48
72370;BME280;60343;-32.030;115.880;2022-09-21T10:57:02;101919.59;;;17.19;72.01
72370;BME280;60343;-32.030;115.880;2022-09-21T10:59:34;101923.97;;;17.20;72.21
72370;BME280;60343;-32.030;115.880;2022-09-21T11:02:33;101933.38;;;17.24;72.52
72370;BME280;60343;-32.030;115.880;2022-09-21T11:05:08;101934.41;;;17.23;72.49
72370;BME280;60343;-32.030;115.880;2022-09-21T11:07:44;101933.66;;;17.29;72.55
72370;BME280;60343;-32.030;115.880;2022-09-21T11:10:20;101951.38;;;17.32;72.40
72370;BME280;60343;-32.030;115.880;2022-09-21T11:13:02;101956.22;;;17.36;74.30
72370;BME280;60343;-32.030;115.880;2022-09-21T11:15:40;101960.78;;;17.36;74.96
72370;BME280;60343;-32.030;115.880;2022-09-21T11:18:21;101954.75;;;17.34;73.98
72370;BME280;60343;-32.030;115.880;2022-09-21T11:20:57;101950.34;;;17.33;74.68
72370;BME280;60343;-32.030;115.880;2022-09-21T11:23:40;101954.03;;;17.25;73.82
72370;BME280;60343;-32.030;115.880;2022-09-21T11:26:11;101956.91;;;17.24;73.50
72370;BME280;60343;-32.030;115.880;2022-09-21T11:28:45;101966.44;;;17.20;73.79
72370;BME280;60343;-32.030;115.880;2022-09-21T11:31:32;101962.03;;;17.19;73.97
72370;BME280;60343;-32.030;115.880;2022-09-21T11:34:22;101973.22;;;17.15;73.74
72370;BME280;60343;-32.030;115.880;2022-09-21T11:37:02;101974.00;;;17.09;74.56
72370;BME280;60343;-32.030;115.880;2022-09-21T11:39:41;101962.88;;;17.04;75.07
72370;BME280;60343;-32.030;115.880;2022-09-21T11:42:26;101957.19;;;16.99;75.63
72370;BME280;60343;-32.030;115.880;2022-09-21T11:45:01;101963.06;;;16.88;76.05
72370;BME280;60343;-32.030;115.880;2022-09-21T11:47:45;101959.06;;;16.84;77.39
72370;BME280;60343;-32.030;115.880;2022-09-21T11:50:34;101960.13;;;16.75;77.60
72370;BME280;60343;-32.030;115.880;2022-09-21T11:53:16;101971.03;;;16.67;77.81
72370;BME280;60343;-32.030;115.880;2022-09-21T11:56:19;101972.47;;;16.55;78.92
72370;BME280;60343;-32.030;115.880;2022-09-21T11:58:57;101969.75;;;16.55;78.99
72370;BME280;60343;-32.030;115.880;2022-09-21T12:01:43;101983.84;;;16.50;79.07
72370;BME280;60343;-32.030;115.880;2022-09-21T12:04:40;101987.09;;;16.46;79.15
72370;BME280;60343;-32.030;115.880;2022-09-21T12:07:33;101985.41;;;16.45;79.13
72370;BME280;60343;-32.030;115.880;2022-09-21T12:10:41;101987.75;;;16.48;79.02
72370;BME280;60343;-32.030;115.880;2022-09-21T12:13:18;101989.06;;;16.52;79.97
72370;BME280;60343;-32.030;115.880;2022-09-21T12:15:57;101988.59;;;16.48;80.28
72370;BME280;60343;-32.030;115.880;2022-09-21T12:18:32;101997.06;;;16.45;80.68
72370;BME280;60343;-32.030;115.880;2022-09-21T12:21:08;102002.00;;;16.42;81.26
72370;BME280;60343;-32.030;115.880;2022-09-21T12:23:48;102008.13;;;16.36;81.82
72370;BME280;60343;-32.030;115.880;2022-09-21T12:26:29;102007.16;;;16.28;82.59
72370;BME280;60343;-32.030;115.880;2022-09-21T12:29:02;102011.34;;;16.31;82.70
72370;BME280;60343;-32.030;115.880;2022-09-21T12:31:41;102004.25;;;16.30;83.22
72370;BME280;60343;-32.030;115.880;2022-09-21T12:34:15;102009.88;;;16.28;83.47
72370;BME280;60343;-32.030;115.880;2022-09-21T12:36:49;102003.16;;;16.24;84.13
72370;BME280;60343;-32.030;115.880;2022-09-21T12:39:36;102008.25;;;16.19;84.17
72370;BME280;60343;-32.030;115.880;2022-09-21T12:42:13;102006.91;;;16.15;84.68
72370;BME280;60343;-32.030;115.880;2022-09-21T12:44:48;101999.00;;;16.14;84.52
72370;BME280;60343;-32.030;115.880;2022-09-21T12:47:21;102003.06;;;16.10;84.60
72370;BME280;60343;-32.030;115.880;2022-09-21T12:49:52;101997.84;;;16.08;84.99
72370;BME280;60343;-32.030;115.880;2022-09-21T12:52:27;101996.00;;;16.09;84.97
72370;BME280;60343;-32.030;115.880;2022-09-21T12:55:07;101990.63;;;16.01;85.04
72370;BME280;60343;-32.030;115.880;2022-09-21T12:57:53;101991.56;;;15.85;85.21
72370;BME280;60343;-32.030;115.880;2022-09-21T13:00:30;101981.81;;;15.84;85.76
72370;BME280;60343;-32.030;115.880;2022-09-21T13:03:10;101984.63;;;15.91;85.70